sensor_id;sensor_type;location;lat;lon;timestamp;pressure;altitude;pressure_sealevel;temperature;humidity
9187;BME280;7273;48.902;9.410;2023-04-21T00:01:29;97686.84;;;5.94;74.12
9187;BME280;7273;48.902;9.410;2023-04-21T00:03:56;97696.00;;;5.98;74.21
9187;BME280;7273;48.902;9.410;2023-04-21T00:06:22;97685.25;;;5.98;74.35
9187;BME280;7273;48.902;9.410;2023-04-21T00:08:48;97693.03;;;5.99;74.05
9187;BME280;7273;48.902;9.410;2023-04-21T00:11:14;97694.72;;;6.05;74.45
9187;BME280;7273;48.902;9.410;2023-04-21T00:13:40;97697.44;;;6.10;74.13
9187;BME280;7273;48.902;9.410;2023-04-21T00:16:06;97681.34;;;6.10;74.11
9187;BME280;7273;48.902;9.410;2023-04-21T00:18:32;97683.22;;;6.10;74.25
9187;BME280;7273;48.902;9.410;2023-04-21T00:20:58;97677.75;;;6.00;73.79
9187;BME280;7273;48.902;9.410;2023-04-21T00:23:24;97680.50;;;6.05;74.20
9187;BME280;7273;48.902;9.410;2023-04-21T00:25:49;97669.44;;;6.01;74.00
9187;BME280;7273;48.902;9.410;2023-04-21T00:28:15;97668.94;;;6.04;74.32
9187;BME280;7273;48.902;9.410;2023-04-21T00:30:41;97671.09;;;6.07;74.41
9187;BME280;7273;48.902;9.410;2023-04-21T00:33:06;97657.41;;;6.04;74.26
9187;BME280;7273;48.902;9.410;2023-04-21T00:35:32;97662.53;;;6.05;74.26
9187;BME280;7273;48.902;9.410;2023-04-21T00:37:58;97663.03;;;6.02;73.98
9187;BME280;7273;48.902;9.410;2023-04-21T00:40:24;97663.31;;;6.06;73.68
9187;BME280;7273;48.902;9.410;2023-04-21T00:42:50;97659.56;;;6.07;73.43
9187;BME280;7273;48.902;9.410;2023-04-21T00:45:15;97661.44;;;6.06;73.59
9187;BME280;7273;48.902;9.410;2023-04-21T00:47:41;97663.56;;;6.04;73.51
9187;BME280;7273;48.902;9.410;2023-04-21T00:50:08;97660.88;;;6.04;73.60
9187;BME280;7273;48.902;9.410;2023-04-21T00:52:34;97659.28;;;6.03;73.36
9187;BME280;7273;48.902;9.410;2023-04-21T00:55:01;97655.47;;;5.99;74.06
9187;BME280;7273;48.902;9.410;2023-04-21T00:57:27;97659.50;;;5.97;73.92
9187;BME280;7273;48.902;9.410;2023-04-21T00:59:54;97652.78;;;5.99;73.55
9187;BME280;7273;48.902;9.410;2023-04-21T01:02:21;97656.56;;;5.98;73.78
9187;BME280;7273;48.902;9.410;2023-04-21T01:04:46;97650.88;;;5.95;74.01
9187;BME280;7273;48.902;9.410;2023-04-21T01:07:12;97645.25;;;5.96;73.88
9187;BME280;7273;48.902;9.410;2023-04-21T01:09:38;97650.63;;;5.96;73.98
9187;BME280;7273;48.902;9.410;2023-04-21T01:12:07;97643.09;;;5.93;73.58
9187;BME280;7273;48.902;9.410;2023-04-21T01:14:33;97643.34;;;5.92;74.69
9187;BME280;7273;48.902;9.410;2023-04-21T01:16:59;97643.63;;;5.90;74.52
9187;BME280;7273;48.902;9.410;2023-04-21T01:19:27;97636.63;;;5.89;73.95
9187;BME280;7273;48.902;9.410;2023-04-21T01:21:54;97640.06;;;5.85;73.78
9187;BME280;7273;48.902;9.410;2023-04-21T01:24:38;97638.72;;;5.82;74.24
9187;BME280;7273;48.902;9.410;2023-04-21T01:27:08;97641.75;;;5.91;74.07
9187;BME280;7273;48.902;9.410;2023-04-21T01:29:34;97635.25;;;5.87;74.18
9187;BME280;7273;48.902;9.410;2023-04-21T01:32:05;97629.59;;;5.83;73.83
9187;BME280;7273;48.902;9.410;2023-04-21T01:34:31;97628.56;;;5.84;73.95
9187;BME280;7273;48.902;9.410;2023-04-21T01:36:57;97634.16;;;5.83;73.96
9187;BME280;7273;48.902;9.410;2023-04-21T01:39:23;97626.09;;;5.83;73.43
9187;BME280;7273;48.902;9.410;2023-04-21T01:41:49;97630.84;;;5.76;74.02
9187;BME280;7273;48.902;9.410;2023-04-21T01:44:14;97624.97;;;5.79;74.16
9187;BME280;7273;48.902;9.410;2023-04-21T01:46:40;97627.63;;;5.74;74.00
9187;BME280;7273;48.902;9.410;2023-04-21T01:49:05;97629.47;;;5.73;74.11
9187;BME280;7273;48.902;9.410;2023-04-21T01:51:31;97627.09;;;5.77;74.14
9187;BME280;7273;48.902;9.410;2023-04-21T01:53:57;97637.53;;;5.73;73.73
9187;BME280;7273;48.902;9.410;2023-04-21T01:56:22;97629.78;;;5.77;74.18
9187;BME280;7273;48.902;9.410;2023-04-21T01:58:48;97631.38;;;5.73;74.24
9187;BME280;7273;48.902;9.410;2023-04-21T02:01:13;97626.00;;;5.73;74.19
9187;BME280;7273;48.902;9.410;2023-04-21T02:03:38;97620.66;;;5.73;73.94
9187;BME280;7273;48.902;9.410;2023-04-21T02:06:04;97629.19;;;5.70;74.04
9187;BME280;7273;48.902;9.410;2023-04-21T02:08:30;97635.88;;;5.67;73.99
9187;BME280;7273;48.902;9.410;2023-04-21T02:10:55;97634.75;;;5.63;74.18
9187;BME280;7273;48.902;9.410;2023-04-21T02:13:20;97635.06;;;5.67;73.99
9187;BME280;7273;48.902;9.410;2023-04-21T02:15:46;97642.06;;;5.68;73.99
9187;BME280;7273;48.902;9.410;2023-04-21T02:18:11;97636.41;;;5.64;73.89
9187;BME280;7273;48.902;9.410;2023-04-21T02:20:37;97635.06;;;5.67;73.71
9187;BME280;7273;48.902;9.410;2023-04-21T02:23:03;97634.28;;;5.66;73.66
9187;BME280;7273;48.902;9.410;2023-04-21T02:25:28;97634.28;;;5.66;73.69
9187;BME280;7273;48.902;9.410;2023-04-21T02:27:54;97630.44;;;5.57;73.65
9187;BME280;7273;48.902;9.410;2023-04-21T02:30:20;97637.34;;;5.48;73.78
9187;BME280;7273;48.902;9.410;2023-04-21T02:32:45;97629.69;;;5.35;74.24
9187;BME280;7273;48.902;9.410;2023-04-21T02:35:11;97631.56;;;5.34;74.07
9187;BME280;7273;48.902;9.410;2023-04-21T02:37:36;97625.91;;;5.31;74.28
9187;BME280;7273;48.902;9.410;2023-04-21T02:40:02;97632.66;;;5.38;74.30
9187;BME280;7273;48.902;9.410;2023-04-21T02:42:27;97623.53;;;5.34;74.31
9187;BME280;7273;48.902;9.410;2023-04-21T02:44:53;97617.91;;;5.36;74.27
9187;BME280;7273;48.902;9.410;2023-04-21T02:47:18;97629.19;;;5.38;74.37
9187;BME280;7273;48.902;9.410;2023-04-21T02:49:43;97627.03;;;5.35;73.86
9187;BME280;7273;48.902;9.410;2023-04-21T02:52:09;97630.22;;;5.37;73.76
9187;BME280;7273;48.902;9.410;2023-04-21T02:54:34;97629.97;;;5.38;73.99
9187;BME280;7273;48.902;9.410;2023-04-21T02:57:00;97638.47;;;5.30;73.85
9187;BME280;7273;48.902;9.410;2023-04-21T02:59:26;97633.63;;;5.27;73.86
9187;BME280;7273;48.902;9.410;2023-04-21T03:01:51;97640.88;;;5.27;74.03
9187;BME280;7273;48.902;9.410;2023-04-21T03:04:17;97642.50;;;5.28;73.77
9187;BME280;7273;48.902;9.410;2023-04-21T03:06:43;97647.03;;;5.27;73.38
9187;BME280;7273;48.902;9.410;2023-04-21T03:09:09;97636.25;;;5.22;74.11
9187;BME280;7273;48.902;9.410;2023-04-21T03:11:34;97633.53;;;5.17;74.17
9187;BME280;7273;48.902;9.410;2023-04-21T03:14:00;97631.59;;;5.13;74.30
9187;BME280;7273;48.902;9.410;2023-04-21T03:16:25;97630.72;;;5.02;74.32
9187;BME280;7273;48.902;9.410;2023-04-21T03:18:52;97625.22;;;4.92;74.47
9187;BME280;7273;48.902;9.410;2023-04-21T03:21:17;97621.47;;;4.93;74.43
9187;BME280;7273;48.902;9.410;2023-04-21T03:23:43;97618.28;;;4.96;74.59
9187;BME280;7273;48.902;9.410;2023-04-21T03:26:08;97618.59;;;5.00;74.45
9187;BME280;7273;48.902;9.410;2023-04-21T03:28:34;97614.63;;;5.02;74.43
9187;BME280;7273;48.902;9.410;2023-04-21T03:30:59;97612.38;;;4.94;74.10
9187;BME280;7273;48.902;9.410;2023-04-21T03:33:25;97614.72;;;4.86;74.28
9187;BME280;7273;48.902;9.410;2023-04-21T03:35:50;97611.91;;;4.76;74.25
9187;BME280;7273;48.902;9.410;2023-04-21T03:38:16;97603.31;;;4.74;74.37
9187;BME280;7273;48.902;9.410;2023-04-21T03:40:41;97603.44;;;4.62;74.60
9187;BME280;7273;48.902;9.410;2023-04-21T03:43:06;97597.28;;;4.62;74.29
9187;BME280;7273;48.902;9.410;2023-04-21T03:45:34;97612.22;;;4.58;74.47
9187;BME280;7273;48.902;9.410;2023-04-21T03:48:00;97615.56;;;4.70;74.81
9187;BME280;7273;48.902;9.410;2023-04-21T03:50:25;97616.00;;;4.62;74.80
9187;BME280;7273;48.902;9.410;2023-04-21T03:52:50;97618.25;;;4.70;74.78
9187;BME280;7273;48.902;9.410;2023-04-21T03:55:16;97623.75;;;4.58;74.65
9187;BME280;7273;48.902;9.410;2023-04-21T03:57:41;97614.72;;;4.64;74.80
9187;BME280;7273;48.902;9.410;2023-04-21T04:00:08;97618.75;;;4.67;74.58
9187;BME280;7273;48.902;9.410;2023-04-21T04:02:35;97622.44;;;4.61;74.77
9187;BME280;7273;48.902;9.410;2023-04-21T04:05:02;97621.38;;;4.62;74.57
9187;BME280;7273;48.902;9.410;2023-04-21T04:07:27;97624.94;;;4.67;74.72
9187;BME280;7273;48.902;9.410;2023-04-21T04:09:53;97627.91;;;4.71;74.70
9187;BME280;7273;48.902;9.410;2023-04-21T04:12:18;97619.56;;;4.67;74.82
9187;BME280;7273;48.902;9.410;2023-04-21T04:14:43;97626.84;;;4.72;75.05
9187;BME280;7273;48.902;9.410;2023-04-21T04:17:09;97634.69;;;4.57;75.10
9187;BME280;7273;48.902;9.410;2023-04-21T04:19:34;97646.22;;;4.57;75.09
9187;BME280;7273;48.902;9.410;2023-04-21T04:22:00;97637.16;;;4.58;75.02
9187;BME280;7273;48.902;9.410;2023-04-21T04:24:26;97637.63;;;4.34;74.95
9187;BME280;7273;48.902;9.410;2023-04-21T04:26:52;97634.81;;;4.24;75.36
9187;BME280;7273;48.902;9.410;2023-04-21T04:29:21;97635.06;;;4.22;75.65
9187;BME280;7273;48.902;9.410;2023-04-21T04:31:49;97633.66;;;4.20;75.74
9187;BME280;7273;48.902;9.410;2023-04-21T04:34:14;97631.75;;;3.98;75.96
9187;BME280;7273;48.902;9.410;2023-04-21T04:36:40;97636.53;;;3.96;75.99
9187;BME280;7273;48.902;9.410;2023-04-21T04:39:06;97638.19;;;3.97;76.09
9187;BME280;7273;48.902;9.410;2023-04-21T04:41:32;97630.16;;;3.97;75.83
9187;BME280;7273;48.902;9.410;2023-04-21T04:43:58;97644.56;;;3.96;76.05
9187;BME280;7273;48.902;9.410;2023-04-21T04:46:24;97638.41;;;3.96;75.94
9187;BME280;7273;48.902;9.410;2023-04-21T04:48:50;97641.31;;;3.94;76.22
9187;BME280;7273;48.902;9.410;2023-04-21T04:51:15;97636.63;;;4.01;76.15
9187;BME280;7273;48.902;9.410;2023-04-21T04:53:41;97647.13;;;4.08;76.04
9187;BME280;7273;48.902;9.410;2023-04-21T04:56:07;97646.53;;;4.23;76.38
9187;BME280;7273;48.902;9.410;2023-04-21T04:58:32;97648.00;;;4.30;76.25
9187;BME280;7273;48.902;9.410;2023-04-21T05:00:57;97654.22;;;4.36;75.76
9187;BME280;7273;48.902;9.410;2023-04-21T05:03:23;97672.00;;;4.42;76.10
9187;BME280;7273;48.902;9.410;2023-04-21T05:05:48;97676.84;;;4.45;75.95
9187;BME280;7273;48.902;9.410;2023-04-21T05:08:13;97655.75;;;4.48;75.72
9187;BME280;7273;48.902;9.410;2023-04-21T05:10:39;97648.25;;;4.50;76.09
9187;BME280;7273;48.902;9.410;2023-04-21T05:13:04;97648.25;;;4.50;76.38
9187;BME280;7273;48.902;9.410;2023-04-21T05:15:30;97663.03;;;4.53;76.26
9187;BME280;7273;48.902;9.410;2023-04-21T05:17:56;97663.91;;;4.58;75.89
9187;BME280;7273;48.902;9.410;2023-04-21T05:20:21;97668.28;;;4.64;75.87
9187;BME280;7273;48.902;9.410;2023-04-21T05:22:47;97664.84;;;4.69;75.79
9187;BME280;7273;48.902;9.410;2023-04-21T05:25:13;97661.16;;;4.75;76.12
9187;BME280;7273;48.902;9.410;2023-04-21T05:27:41;97662.09;;;4.85;75.63
9187;BME280;7273;48.902;9.410;2023-04-21T05:30:08;97657.63;;;4.91;75.47
9187;BME280;7273;48.902;9.410;2023-04-21T05:32:33;97676.13;;;4.92;75.31
9187;BME280;7273;48.902;9.410;2023-04-21T05:34:59;97665.97;;;4.94;75.68
9187;BME280;7273;48.902;9.410;2023-04-21T05:37:25;97671.38;;;4.99;75.56
9187;BME280;7273;48.902;9.410;2023-04-21T05:39:51;97680.69;;;4.92;75.82
9187;BME280;7273;48.902;9.410;2023-04-21T05:42:16;97682.09;;;4.99;75.93
9187;BME280;7273;48.902;9.410;2023-04-21T05:44:45;97679.22;;;5.06;75.83
9187;BME280;7273;48.902;9.410;2023-04-21T05:47:11;97674.47;;;5.13;75.60
9187;BME280;7273;48.902;9.410;2023-04-21T05:49:36;97672.69;;;5.18;75.88
9187;BME280;7273;48.902;9.410;2023-04-21T05:52:02;97680.59;;;5.30;75.63
9187;BME280;7273;48.902;9.410;2023-04-21T05:54:27;97676.56;;;5.32;75.73
9187;BME280;7273;48.902;9.410;2023-04-21T05:56:52;97669.66;;;5.36;75.58
9187;BME280;7273;48.902;9.410;2023-04-21T05:59:18;97660.84;;;5.41;75.87
9187;BME280;7273;48.902;9.410;2023-04-21T06:01:43;97663.06;;;5.49;75.70
9187;BME280;7273;48.902;9.410;2023-04-21T06:04:09;97656.44;;;5.57;75.60
9187;BME280;7273;48.902;9.410;2023-04-21T06:06:34;97648.22;;;5.68;75.81
9187;BME280;7273;48.902;9.410;2023-04-21T06:09:00;97644.28;;;5.76;75.71
9187;BME280;7273;48.902;9.410;2023-04-21T06:11:26;97654.31;;;5.85;75.52
9187;BME280;7273;48.902;9.410;2023-04-21T06:13:51;97654.31;;;5.85;75.25
9187;BME280;7273;48.902;9.410;2023-04-21T06:16:19;97642.53;;;5.91;74.95
9187;BME280;7273;48.902;9.410;2023-04-21T06:18:44;97637.47;;;5.95;75.31
9187;BME280;7273;48.902;9.410;2023-04-21T06:21:09;97638.31;;;6.00;75.45
9187;BME280;7273;48.902;9.410;2023-04-21T06:23:35;97640.53;;;6.08;75.16
9187;BME280;7273;48.902;9.410;2023-04-21T06:26:05;97646.94;;;6.07;74.94
9187;BME280;7273;48.902;9.410;2023-04-21T06:28:31;97641.13;;;6.15;74.72
9187;BME280;7273;48.902;9.410;2023-04-21T06:30:58;97646.00;;;6.23;74.56
9187;BME280;7273;48.902;9.410;2023-04-21T06:33:24;97645.25;;;6.33;75.33
9187;BME280;7273;48.902;9.410;2023-04-21T06:35:51;97648.53;;;6.40;74.64
9187;BME280;7273;48.902;9.410;2023-04-21T06:38:16;97647.50;;;6.51;74.54
9187;BME280;7273;48.902;9.410;2023-04-21T06:40:42;97631.16;;;6.57;74.83
9187;BME280;7273;48.902;9.410;2023-04-21T06:43:07;97642.47;;;6.64;75.03
9187;BME280;7273;48.902;9.410;2023-04-21T06:45:32;97641.97;;;6.67;74.77
9187;BME280;7273;48.902;9.410;2023-04-21T06:47:58;97651.34;;;6.70;74.58
9187;BME280;7273;48.902;9.410;2023-04-21T06:50:23;97660.78;;;6.72;74.73
9187;BME280;7273;48.902;9.410;2023-04-21T06:52:48;97664.56;;;6.76;74.51
9187;BME280;7273;48.902;9.410;2023-04-21T06:55:14;97659.72;;;6.78;74.95
9187;BME280;7273;48.902;9.410;2023-04-21T06:57:39;97664.03;;;6.84;74.56
9187;BME280;7273;48.902;9.410;2023-04-21T07:00:05;97670.78;;;6.82;75.58
9187;BME280;7273;48.902;9.410;2023-04-21T07:02:31;97672.66;;;6.87;76.44
9187;BME280;7273;48.902;9.410;2023-04-21T07:04:57;97670.81;;;6.92;76.30
9187;BME280;7273;48.902;9.410;2023-04-21T07:07:22;97659.28;;;7.02;76.47
9187;BME280;7273;48.902;9.410;2023-04-21T07:09:47;97650.41;;;7.01;76.68
9187;BME280;7273;48.902;9.410;2023-04-21T07:12:13;97641.28;;;7.12;76.48
9187;BME280;7273;48.902;9.410;2023-04-21T07:14:39;97637.31;;;7.25;75.25
9187;BME280;7273;48.902;9.410;2023-04-21T07:17:04;97633.84;;;7.34;75.56
9187;BME280;7273;48.902;9.410;2023-04-21T07:19:30;97642.47;;;7.46;74.95
9187;BME280;7273;48.902;9.410;2023-04-21T07:21:55;97644.09;;;7.57;74.94
9187;BME280;7273;48.902;9.410;2023-04-21T07:24:21;97637.91;;;7.67;75.25
9187;BME280;7273;48.902;9.410;2023-04-21T07:26:46;97637.91;;;7.72;74.91
9187;BME280;7273;48.902;9.410;2023-04-21T07:29:11;97635.22;;;7.77;74.75
9187;BME280;7273;48.902;9.410;2023-04-21T07:31:37;97636.56;;;7.84;75.22
9187;BME280;7273;48.902;9.410;2023-04-21T07:34:02;97633.06;;;7.89;74.55
9187;BME280;7273;48.902;9.410;2023-04-21T07:36:28;97628.22;;;7.96;74.30
9187;BME280;7273;48.902;9.410;2023-04-21T07:38:53;97619.03;;;8.02;74.49
9187;BME280;7273;48.902;9.410;2023-04-21T07:41:18;97617.16;;;8.07;74.26
9187;BME280;7273;48.902;9.410;2023-04-21T07:43:44;97614.47;;;8.12;74.54
9187;BME280;7273;48.902;9.410;2023-04-21T07:46:09;97623.38;;;8.23;74.58
9187;BME280;7273;48.902;9.410;2023-04-21T07:48:38;97616.63;;;8.31;74.27
9187;BME280;7273;48.902;9.410;2023-04-21T07:51:03;97613.38;;;8.39;74.12
9187;BME280;7273;48.902;9.410;2023-04-21T07:53:29;97610.94;;;8.47;74.08
9187;BME280;7273;48.902;9.410;2023-04-21T07:55:54;97606.34;;;8.53;74.73
9187;BME280;7273;48.902;9.410;2023-04-21T07:58:20;97604.16;;;8.60;74.31
9187;BME280;7273;48.902;9.410;2023-04-21T08:00:46;97609.25;;;8.66;73.90
9187;BME280;7273;48.902;9.410;2023-04-21T08:03:12;97609.50;;;8.75;73.91
9187;BME280;7273;48.902;9.410;2023-04-21T08:05:37;97600.25;;;8.86;74.06
9187;BME280;7273;48.902;9.410;2023-04-21T08:08:03;97603.47;;;8.93;73.91
9187;BME280;7273;48.902;9.410;2023-04-21T08:10:28;97599.38;;;9.00;74.17
9187;BME280;7273;48.902;9.410;2023-04-21T08:12:53;97610.16;;;9.05;73.82
9187;BME280;7273;48.902;9.410;2023-04-21T08:15:19;97605.50;;;9.21;73.45
9187;BME280;7273;48.902;9.410;2023-04-21T08:17:45;97609.16;;;9.35;73.62
9187;BME280;7273;48.902;9.410;2023-04-21T08:20:11;97612.31;;;9.52;73.75
9187;BME280;7273;48.902;9.410;2023-04-21T08:22:36;97616.81;;;9.62;73.21
9187;BME280;7273;48.902;9.410;2023-04-21T08:25:05;97614.06;;;9.72;73.13
9187;BME280;7273;48.902;9.410;2023-04-21T08:27:30;97611.56;;;9.80;73.10
9187;BME280;7273;48.902;9.410;2023-04-21T08:29:56;97613.66;;;9.88;72.67
9187;BME280;7273;48.902;9.410;2023-04-21T08:32:21;97609.00;;;9.94;72.77
9187;BME280;7273;48.902;9.410;2023-04-21T08:34:52;97606.19;;;10.09;72.41
9187;BME280;7273;48.902;9.410;2023-04-21T08:37:18;97614.25;;;10.14;72.67
9187;BME280;7273;48.902;9.410;2023-04-21T08:39:44;97612.31;;;10.19;72.55
9187;BME280;7273;48.902;9.410;2023-04-21T08:42:15;97609.63;;;10.19;72.39
9187;BME280;7273;48.902;9.410;2023-04-21T08:44:41;97607.22;;;10.18;72.36
9187;BME280;7273;48.902;9.410;2023-04-21T08:47:09;97611.75;;;10.22;72.27
9187;BME280;7273;48.902;9.410;2023-04-21T08:49:39;97606.06;;;10.24;71.98
9187;BME280;7273;48.902;9.410;2023-04-21T08:52:05;97612.00;;;10.49;72.05
9187;BME280;7273;48.902;9.410;2023-04-21T08:54:32;97611.84;;;10.64;71.86
9187;BME280;7273;48.902;9.410;2023-04-21T08:56:57;97609.38;;;10.92;71.81
9187;BME280;7273;48.902;9.410;2023-04-21T08:59:23;97611.78;;;11.12;72.02
9187;BME280;7273;48.902;9.410;2023-04-21T09:02:14;97609.78;;;11.41;71.78
9187;BME280;7273;48.902;9.410;2023-04-21T09:04:42;97608.25;;;11.72;70.92
9187;BME280;7273;48.902;9.410;2023-04-21T09:07:08;97615.91;;;11.83;70.65
9187;BME280;7273;48.902;9.410;2023-04-21T09:10:09;97605.69;;;12.12;70.28
9187;BME280;7273;48.902;9.410;2023-04-21T09:12:34;97604.22;;;12.34;70.17
9187;BME280;7273;48.902;9.410;2023-04-21T09:15:09;97610.78;;;12.46;68.92
9187;BME280;7273;48.902;9.410;2023-04-21T09:17:34;97599.84;;;12.65;68.89
9187;BME280;7273;48.902;9.410;2023-04-21T09:20:15;97601.56;;;12.74;68.77
9187;BME280;7273;48.902;9.410;2023-04-21T09:22:42;97603.88;;;12.94;68.98
9187;BME280;7273;48.902;9.410;2023-04-21T09:25:07;97605.91;;;13.02;68.85
9187;BME280;7273;48.902;9.410;2023-04-21T09:27:36;97591.50;;;13.29;69.01
9187;BME280;7273;48.902;9.410;2023-04-21T09:30:03;97590.25;;;13.35;68.56
9187;BME280;7273;48.902;9.410;2023-04-21T09:32:35;97582.00;;;13.62;68.72
9187;BME280;7273;48.902;9.410;2023-04-21T09:35:01;97585.19;;;13.78;69.18
9187;BME280;7273;48.902;9.410;2023-04-21T09:37:31;97584.38;;;13.99;68.70
9187;BME280;7273;48.902;9.410;2023-04-21T09:39:58;97585.28;;;14.17;68.38
9187;BME280;7273;48.902;9.410;2023-04-21T09:42:30;97588.19;;;14.42;68.39
9187;BME280;7273;48.902;9.410;2023-04-21T09:44:56;97593.16;;;14.49;68.44
9187;BME280;7273;48.902;9.410;2023-04-21T09:47:22;97594.84;;;14.67;68.14
9187;BME280;7273;48.902;9.410;2023-04-21T09:49:50;97594.22;;;14.70;67.53
9187;BME280;7273;48.902;9.410;2023-04-21T09:52:18;97600.84;;;14.77;67.41
9187;BME280;7273;48.902;9.410;2023-04-21T09:54:48;97588.69;;;14.83;67.09
9187;BME280;7273;48.902;9.410;2023-04-21T09:57:19;97587.25;;;14.95;67.43
9187;BME280;7273;48.902;9.410;2023-04-21T09:59:46;97580.88;;;14.91;67.65
9187;BME280;7273;48.902;9.410;2023-04-21T10:02:14;97581.97;;;14.90;64.88
9187;BME280;7273;48.902;9.410;2023-04-21T10:04:42;97581.03;;;15.03;66.86
9187;BME280;7273;48.902;9.410;2023-04-21T10:07:08;97574.34;;;15.26;66.89
9187;BME280;7273;48.902;9.410;2023-04-21T10:09:45;97566.84;;;15.31;66.81
9187;BME280;7273;48.902;9.410;2023-04-21T10:12:12;97558.88;;;15.52;67.02
9187;BME280;7273;48.902;9.410;2023-04-21T10:14:38;97559.53;;;15.74;66.60
9187;BME280;7273;48.902;9.410;2023-04-21T10:17:05;97561.59;;;15.86;66.87
9187;BME280;7273;48.902;9.410;2023-04-21T10:19:31;97556.56;;;16.13;66.36
9187;BME280;7273;48.902;9.410;2023-04-21T10:22:05;97548.56;;;16.17;66.32
9187;BME280;7273;48.902;9.410;2023-04-21T10:24:36;97541.97;;;16.18;66.27
9187;BME280;7273;48.902;9.410;2023-04-21T10:27:02;97540.44;;;16.38;66.00
9187;BME280;7273;48.902;9.410;2023-04-21T10:29:29;97543.47;;;16.45;66.02
9187;BME280;7273;48.902;9.410;2023-04-21T10:31:57;97543.75;;;16.60;65.94
9187;BME280;7273;48.902;9.410;2023-04-21T10:42:34;97542.59;;;16.70;65.97
9187;BME280;7273;48.902;9.410;2023-04-21T10:45:05;97542.03;;;16.56;66.02
9187;BME280;7273;48.902;9.410;2023-04-21T10:50:15;97533.97;;;16.59;66.34
9187;BME280;7273;48.902;9.410;2023-04-21T10:53:08;97530.56;;;17.00;65.35
9187;BME280;7273;48.902;9.410;2023-04-21T10:55:34;97532.94;;;17.01;66.12
9187;BME280;7273;48.902;9.410;2023-04-21T10:58:05;97538.56;;;17.05;65.60
9187;BME280;7273;48.902;9.410;2023-04-21T11:00:31;97529.25;;;16.97;66.10
9187;BME280;7273;48.902;9.410;2023-04-21T11:03:01;97535.66;;;16.81;66.20
9187;BME280;7273;48.902;9.410;2023-04-21T11:05:38;97529.31;;;17.38;65.27
9187;BME280;7273;48.902;9.410;2023-04-21T11:08:13;97528.94;;;17.49;65.65
9187;BME280;7273;48.902;9.410;2023-04-21T11:13:10;97526.72;;;18.16;65.14
9187;BME280;7273;48.902;9.410;2023-04-21T11:15:35;97520.19;;;18.53;64.93
9187;BME280;7273;48.902;9.410;2023-04-21T11:18:01;97517.09;;;18.91;64.82
9187;BME280;7273;48.902;9.410;2023-04-21T11:20:27;97518.34;;;19.05;65.61
9187;BME280;7273;48.902;9.410;2023-04-21T11:22:55;97507.94;;;19.35;65.19
9187;BME280;7273;48.902;9.410;2023-04-21T11:25:20;97511.28;;;19.04;65.90
9187;BME280;7273;48.902;9.410;2023-04-21T11:27:55;97508.09;;;18.78;65.47
9187;BME280;7273;48.902;9.410;2023-04-21T11:30:30;97517.22;;;18.94;65.19
9187;BME280;7273;48.902;9.410;2023-04-21T11:32:56;97512.81;;;19.53;65.56
9187;BME280;7273;48.902;9.410;2023-04-21T11:35:22;97511.47;;;19.75;66.29
9187;BME280;7273;48.902;9.410;2023-04-21T11:37:49;97511.19;;;20.20;64.82
9187;BME280;7273;48.902;9.410;2023-04-21T11:40:16;97509.69;;;20.84;66.21
9187;BME280;7273;48.902;9.410;2023-04-21T11:42:41;97505.22;;;20.95;67.63
9187;BME280;7273;48.902;9.410;2023-04-21T11:45:07;97506.41;;;21.64;67.16
9187;BME280;7273;48.902;9.410;2023-04-21T11:47:40;97500.97;;;21.67;67.33
9187;BME280;7273;48.902;9.410;2023-04-21T11:50:05;97500.91;;;21.64;67.37
9187;BME280;7273;48.902;9.410;2023-04-21T11:52:33;97494.28;;;22.25;66.24
9187;BME280;7273;48.902;9.410;2023-04-21T11:55:13;97489.66;;;22.52;63.65
9187;BME280;7273;48.902;9.410;2023-04-21T11:57:44;97493.66;;;22.54;65.47
9187;BME280;7273;48.902;9.410;2023-04-21T12:00:11;97494.44;;;22.55;65.13
9187;BME280;7273;48.902;9.410;2023-04-21T12:02:39;97486.69;;;22.87;63.99
9187;BME280;7273;48.902;9.410;2023-04-21T12:05:10;97482.38;;;22.63;63.13
9187;BME280;7273;48.902;9.410;2023-04-21T12:07:37;97483.13;;;22.60;64.13
9187;BME280;7273;48.902;9.410;2023-04-21T12:10:21;97483.66;;;22.69;60.46
9187;BME280;7273;48.902;9.410;2023-04-21T12:12:47;97480.06;;;22.46;63.90
9187;BME280;7273;48.902;9.410;2023-04-21T12:15:19;97480.41;;;22.64;62.14
9187;BME280;7273;48.902;9.410;2023-04-21T12:20:17;97476.66;;;22.52;62.67
9187;BME280;7273;48.902;9.410;2023-04-21T12:22:44;97479.56;;;22.18;63.53
9187;BME280;7273;48.902;9.410;2023-04-21T12:25:10;97473.22;;;22.14;62.80
9187;BME280;7273;48.902;9.410;2023-04-21T12:27:35;97471.06;;;22.26;62.11
9187;BME280;7273;48.902;9.410;2023-04-21T12:30:01;97466.84;;;21.53;63.42
9187;BME280;7273;48.902;9.410;2023-04-21T12:32:27;97471.13;;;21.69;62.58
9187;BME280;7273;48.902;9.410;2023-04-21T12:34:52;97472.63;;;21.28;63.16
9187;BME280;7273;48.902;9.410;2023-04-21T12:37:18;97466.69;;;21.26;62.76
9187;BME280;7273;48.902;9.410;2023-04-21T12:39:43;97461.72;;;21.32;62.58
9187;BME280;7273;48.902;9.410;2023-04-21T12:42:09;97458.34;;;20.88;63.41
9187;BME280;7273;48.902;9.410;2023-04-21T12:44:34;97460.78;;;20.59;63.19
9187;BME280;7273;48.902;9.410;2023-04-21T12:46:59;97463.22;;;20.79;62.18
9187;BME280;7273;48.902;9.410;2023-04-21T12:49:25;97449.88;;;20.47;62.54
9187;BME280;7273;48.902;9.410;2023-04-21T12:51:50;97449.44;;;20.45;62.54
9187;BME280;7273;48.902;9.410;2023-04-21T12:54:16;97442.59;;;20.54;62.18
9187;BME280;7273;48.902;9.410;2023-04-21T12:56:42;97442.44;;;20.47;62.34
9187;BME280;7273;48.902;9.410;2023-04-21T12:59:08;97440.09;;;20.02;62.94
9187;BME280;7273;48.902;9.410;2023-04-21T13:01:35;97437.38;;;20.34;61.83
9187;BME280;7273;48.902;9.410;2023-04-21T13:04:02;97437.59;;;19.97;62.36
9187;BME280;7273;48.902;9.410;2023-04-21T13:06:27;97419.44;;;20.08;61.70
9187;BME280;7273;48.902;9.410;2023-04-21T13:08:53;97424.13;;;19.92;61.82
9187;BME280;7273;48.902;9.410;2023-04-21T13:11:18;97427.22;;;19.91;61.82
9187;BME280;7273;48.902;9.410;2023-04-21T13:13:43;97425.38;;;19.95;61.57
9187;BME280;7273;48.902;9.410;2023-04-21T13:16:09;97428.34;;;19.74;61.77
9187;BME280;7273;48.902;9.410;2023-04-21T13:18:34;97418.38;;;19.82;61.54
9187;BME280;7273;48.902;9.410;2023-04-21T13:21:01;97414.44;;;19.67;61.54
9187;BME280;7273;48.902;9.410;2023-04-21T13:23:26;97413.00;;;19.58;61.45
9187;BME280;7273;48.902;9.410;2023-04-21T13:25:52;97410.56;;;19.41;61.46
9187;BME280;7273;48.902;9.410;2023-04-21T13:28:18;97417.84;;;19.49;60.88
9187;BME280;7273;48.902;9.410;2023-04-21T13:30:43;97414.16;;;19.29;61.08
9187;BME280;7273;48.902;9.410;2023-04-21T13:33:10;97417.09;;;19.36;60.74
9187;BME280;7273;48.902;9.410;2023-04-21T13:35:36;97415.44;;;19.20;60.90
9187;BME280;7273;48.902;9.410;2023-04-21T13:38:01;97405.22;;;19.32;60.33
9187;BME280;7273;48.902;9.410;2023-04-21T13:40:27;97407.19;;;19.20;60.51
9187;BME280;7273;48.902;9.410;2023-04-21T13:42:52;97408.78;;;19.21;60.29